sensor_id;sensor_type;location;lat;lon;timestamp;P1;durP1;ratioP1;P2;durP2;ratioP2
37459;SDS011;23318;50.966;5.284;2023-02-11T00:01:18;35.72;;;19.75;;
37459;SDS011;23318;50.966;5.284;2023-02-11T00:03:46;36.08;;;18.52;;
37459;SDS011;23318;50.966;5.284;2023-02-11T00:06:11;39.70;;;20.30;;
37459;SDS011;23318;50.966;5.284;2023-02-11T00:08:37;42.63;;;20.17;;
37459;SDS011;23318;50.966;5.284;2023-02-11T00:11:03;36.53;;;19.00;;
37459;SDS011;23318;50.966;5.284;2023-02-11T00:13:29;41.97;;;19.52;;
37459;SDS011;23318;50.966;5.284;2023-02-11T00:15:55;40.80;;;19.20;;
37459;SDS011;23318;50.966;5.284;2023-02-11T00:18:21;35.17;;;20.02;;
37459;SDS011;23318;50.966;5.284;2023-02-11T00:20:46;36.05;;;18.92;;
37459;SDS011;23318;50.966;5.284;2023-02-11T00:23:12;38.95;;;20.15;;
37459;SDS011;23318;50.966;5.284;2023-02-11T00:25:39;35.80;;;19.98;;
37459;SDS011;23318;50.966;5.284;2023-02-11T00:28:06;34.55;;;17.70;;
37459;SDS011;23318;50.966;5.284;2023-02-11T00:30:32;30.83;;;18.25;;
37459;SDS011;23318;50.966;5.284;2023-02-11T00:32:58;32.45;;;18.73;;
37459;SDS011;23318;50.966;5.284;2023-02-11T00:35:23;35.50;;;19.48;;
37459;SDS011;23318;50.966;5.284;2023-02-11T00:37:49;38.72;;;20.95;;
37459;SDS011;23318;50.966;5.284;2023-02-11T00:40:17;42.58;;;20.67;;
37459;SDS011;23318;50.966;5.284;2023-02-11T00:42:43;38.35;;;21.02;;
37459;SDS011;23318;50.966;5.284;2023-02-11T00:45:09;40.75;;;22.10;;
37459;SDS011;23318;50.966;5.284;2023-02-11T00:47:34;39.45;;;20.08;;
37459;SDS011;23318;50.966;5.284;2023-02-11T00:50:01;38.90;;;20.90;;
37459;SDS011;23318;50.966;5.284;2023-02-11T00:52:29;37.67;;;20.80;;
37459;SDS011;23318;50.966;5.284;2023-02-11T00:54:57;38.90;;;21.60;;
37459;SDS011;23318;50.966;5.284;2023-02-11T00:57:23;42.63;;;21.38;;
37459;SDS011;23318;50.966;5.284;2023-02-11T00:59:49;45.08;;;20.02;;
37459;SDS011;23318;50.966;5.284;2023-02-11T01:02:14;39.53;;;22.95;;
37459;SDS011;23318;50.966;5.284;2023-02-11T01:04:41;37.45;;;20.98;;
37459;SDS011;23318;50.966;5.284;2023-02-11T01:07:07;38.65;;;20.25;;
37459;SDS011;23318;50.966;5.284;2023-02-11T01:09:33;37.85;;;20.50;;
37459;SDS011;23318;50.966;5.284;2023-02-11T01:11:58;37.40;;;19.80;;
37459;SDS011;23318;50.966;5.284;2023-02-11T01:14:24;37.65;;;20.23;;
37459;SDS011;23318;50.966;5.284;2023-02-11T01:16:50;40.38;;;20.80;;
37459;SDS011;23318;50.966;5.284;2023-02-11T01:19:15;39.40;;;20.17;;
37459;SDS011;23318;50.966;5.284;2023-02-11T01:21:41;36.95;;;20.27;;
37459;SDS011;23318;50.966;5.284;2023-02-11T01:24:06;34.28;;;19.88;;
37459;SDS011;23318;50.966;5.284;2023-02-11T01:26:32;37.83;;;20.42;;
37459;SDS011;23318;50.966;5.284;2023-02-11T01:28:58;35.30;;;20.15;;
37459;SDS011;23318;50.966;5.284;2023-02-11T01:31:25;38.30;;;19.45;;
37459;SDS011;23318;50.966;5.284;2023-02-11T01:33:51;36.80;;;19.88;;
37459;SDS011;23318;50.966;5.284;2023-02-11T01:36:16;40.50;;;19.77;;
37459;SDS011;23318;50.966;5.284;2023-02-11T01:38:42;35.08;;;19.40;;
37459;SDS011;23318;50.966;5.284;2023-02-11T01:41:10;33.03;;;17.35;;
37459;SDS011;23318;50.966;5.284;2023-02-11T01:43:40;34.38;;;18.25;;
37459;SDS011;23318;50.966;5.284;2023-02-11T01:46:20;38.58;;;18.20;;
37459;SDS011;23318;50.966;5.284;2023-02-11T01:48:54;29.85;;;17.20;;
37459;SDS011;23318;50.966;5.284;2023-02-11T01:51:29;30.55;;;16.67;;
37459;SDS011;23318;50.966;5.284;2023-02-11T01:54:02;34.90;;;16.77;;
37459;SDS011;23318;50.966;5.284;2023-02-11T01:56:49;31.77;;;17.23;;
37459;SDS011;23318;50.966;5.284;2023-02-11T01:59:37;32.58;;;15.43;;
37459;SDS011;23318;50.966;5.284;2023-02-11T02:02:10;37.60;;;15.50;;
37459;SDS011;23318;50.966;5.284;2023-02-11T02:04:49;30.70;;;14.98;;
37459;SDS011;23318;50.966;5.284;2023-02-11T02:07:32;37.20;;;14.88;;
37459;SDS011;23318;50.966;5.284;2023-02-11T02:10:19;36.03;;;15.27;;
37459;SDS011;23318;50.966;5.284;2023-02-11T02:12:49;33.65;;;14.05;;
37459;SDS011;23318;50.966;5.284;2023-02-11T02:37:46;31.30;;;15.57;;
37459;SDS011;23318;50.966;5.284;2023-02-11T02:40:26;27.80;;;14.25;;
37459;SDS011;23318;50.966;5.284;2023-02-11T02:42:56;32.00;;;13.45;;
37459;SDS011;23318;50.966;5.284;2023-02-11T02:45:24;31.67;;;13.90;;
37459;SDS011;23318;50.966;5.284;2023-02-11T02:47:50;30.67;;;14.38;;
37459;SDS011;23318;50.966;5.284;2023-02-11T02:50:16;28.85;;;15.30;;
37459;SDS011;23318;50.966;5.284;2023-02-11T02:55:51;30.65;;;13.02;;
37459;SDS011;23318;50.966;5.284;2023-02-11T03:11:57;32.20;;;13.93;;
37459;SDS011;23318;50.966;5.284;2023-02-11T03:14:25;32.67;;;14.23;;
37459;SDS011;23318;50.966;5.284;2023-02-11T03:16:53;29.77;;;14.13;;
37459;SDS011;23318;50.966;5.284;2023-02-11T03:19:25;34.28;;;14.85;;
37459;SDS011;23318;50.966;5.284;2023-02-11T03:22:23;28.60;;;13.52;;
37459;SDS011;23318;50.966;5.284;2023-02-11T03:25:03;37.08;;;13.43;;
37459;SDS011;23318;50.966;5.284;2023-02-11T03:32:49;31.83;;;14.13;;
37459;SDS011;23318;50.966;5.284;2023-02-11T03:35:22;28.63;;;13.40;;
37459;SDS011;23318;50.966;5.284;2023-02-11T03:37:54;32.53;;;14.93;;
37459;SDS011;23318;50.966;5.284;2023-02-11T03:40:28;29.85;;;15.00;;
37459;SDS011;23318;50.966;5.284;2023-02-11T03:43:01;33.85;;;14.07;;
37459;SDS011;23318;50.966;5.284;2023-02-11T03:45:32;31.17;;;13.45;;
37459;SDS011;23318;50.966;5.284;2023-02-11T03:48:11;31.77;;;14.45;;
37459;SDS011;23318;50.966;5.284;2023-02-11T03:50:42;26.23;;;13.07;;
37459;SDS011;23318;50.966;5.284;2023-02-11T03:53:10;29.73;;;13.23;;
37459;SDS011;23318;50.966;5.284;2023-02-11T03:55:37;32.42;;;14.25;;
37459;SDS011;23318;50.966;5.284;2023-02-11T03:58:05;28.85;;;13.15;;
37459;SDS011;23318;50.966;5.284;2023-02-11T04:00:31;22.30;;;13.23;;
37459;SDS011;23318;50.966;5.284;2023-02-11T04:03:01;28.08;;;13.82;;
37459;SDS011;23318;50.966;5.284;2023-02-11T04:05:28;24.73;;;13.82;;
37459;SDS011;23318;50.966;5.284;2023-02-11T04:07:53;24.98;;;13.23;;
37459;SDS011;23318;50.966;5.284;2023-02-11T04:10:19;33.92;;;15.18;;
37459;SDS011;23318;50.966;5.284;2023-02-11T04:12:45;27.67;;;14.05;;
37459;SDS011;23318;50.966;5.284;2023-02-11T04:15:11;33.38;;;14.25;;
37459;SDS011;23318;50.966;5.284;2023-02-11T04:17:36;28.65;;;14.13;;
37459;SDS011;23318;50.966;5.284;2023-02-11T04:20:02;31.55;;;13.15;;
37459;SDS011;23318;50.966;5.284;2023-02-11T04:22:29;34.00;;;14.93;;
37459;SDS011;23318;50.966;5.284;2023-02-11T04:24:54;35.55;;;15.10;;
37459;SDS011;23318;50.966;5.284;2023-02-11T04:27:20;29.40;;;13.98;;
37459;SDS011;23318;50.966;5.284;2023-02-11T04:29:46;26.52;;;13.35;;
37459;SDS011;23318;50.966;5.284;2023-02-11T04:32:12;32.05;;;14.43;;
37459;SDS011;23318;50.966;5.284;2023-02-11T04:34:38;26.77;;;13.95;;
37459;SDS011;23318;50.966;5.284;2023-02-11T04:37:03;31.35;;;13.75;;
37459;SDS011;23318;50.966;5.284;2023-02-11T04:39:29;36.75;;;14.02;;
37459;SDS011;23318;50.966;5.284;2023-02-11T04:41:55;29.52;;;15.18;;
37459;SDS011;23318;50.966;5.284;2023-02-11T04:44:20;34.90;;;14.38;;
37459;SDS011;23318;50.966;5.284;2023-02-11T04:46:46;34.47;;;15.00;;
37459;SDS011;23318;50.966;5.284;2023-02-11T04:49:13;36.17;;;15.32;;
37459;SDS011;23318;50.966;5.284;2023-02-11T04:51:39;40.22;;;14.05;;
37459;SDS011;23318;50.966;5.284;2023-02-11T04:54:06;34.92;;;14.18;;
37459;SDS011;23318;50.966;5.284;2023-02-11T04:56:32;26.50;;;14.90;;
37459;SDS011;23318;50.966;5.284;2023-02-11T04:58:57;41.83;;;14.77;;
37459;SDS011;23318;50.966;5.284;2023-02-11T05:01:23;32.13;;;15.90;;
37459;SDS011;23318;50.966;5.284;2023-02-11T05:03:49;38.92;;;16.35;;
37459;SDS011;23318;50.966;5.284;2023-02-11T05:06:15;33.65;;;14.20;;
37459;SDS011;23318;50.966;5.284;2023-02-11T05:08:41;35.50;;;14.77;;
37459;SDS011;23318;50.966;5.284;2023-02-11T05:11:08;40.00;;;16.00;;
37459;SDS011;23318;50.966;5.284;2023-02-11T05:13:40;31.15;;;14.95;;
37459;SDS011;23318;50.966;5.284;2023-02-11T05:16:05;32.97;;;15.60;;
37459;SDS011;23318;50.966;5.284;2023-02-11T05:18:31;30.20;;;15.20;;
37459;SDS011;23318;50.966;5.284;2023-02-11T05:20:56;35.40;;;14.75;;
37459;SDS011;23318;50.966;5.284;2023-02-11T05:23:22;36.20;;;16.65;;
37459;SDS011;23318;50.966;5.284;2023-02-11T05:25:48;36.78;;;15.90;;
37459;SDS011;23318;50.966;5.284;2023-02-11T05:28:13;35.65;;;16.63;;
37459;SDS011;23318;50.966;5.284;2023-02-11T05:30:39;33.88;;;15.23;;
37459;SDS011;23318;50.966;5.284;2023-02-11T05:33:05;36.78;;;15.75;;
37459;SDS011;23318;50.966;5.284;2023-02-11T05:35:31;35.60;;;15.90;;
37459;SDS011;23318;50.966;5.284;2023-02-11T05:37:56;33.60;;;16.55;;
37459;SDS011;23318;50.966;5.284;2023-02-11T05:40:22;35.03;;;16.17;;
37459;SDS011;23318;50.966;5.284;2023-02-11T05:42:48;41.58;;;16.77;;
37459;SDS011;23318;50.966;5.284;2023-02-11T05:45:13;35.97;;;16.40;;
37459;SDS011;23318;50.966;5.284;2023-02-11T05:47:39;43.55;;;16.67;;
37459;SDS011;23318;50.966;5.284;2023-02-11T05:50:05;38.95;;;16.95;;
37459;SDS011;23318;50.966;5.284;2023-02-11T05:52:30;42.10;;;16.92;;
37459;SDS011;23318;50.966;5.284;2023-02-11T05:54:56;36.92;;;16.63;;
37459;SDS011;23318;50.966;5.284;2023-02-11T05:57:22;33.75;;;16.60;;
37459;SDS011;23318;50.966;5.284;2023-02-11T05:59:47;39.47;;;17.80;;
37459;SDS011;23318;50.966;5.284;2023-02-11T06:02:13;32.75;;;16.40;;
37459;SDS011;23318;50.966;5.284;2023-02-11T06:04:39;43.90;;;19.08;;
37459;SDS011;23318;50.966;5.284;2023-02-11T06:07:05;44.13;;;17.85;;
37459;SDS011;23318;50.966;5.284;2023-02-11T06:09:31;37.90;;;18.90;;
37459;SDS011;23318;50.966;5.284;2023-02-11T06:11:57;46.00;;;18.73;;
37459;SDS011;23318;50.966;5.284;2023-02-11T06:14:22;45.17;;;18.45;;
37459;SDS011;23318;50.966;5.284;2023-02-11T06:16:48;37.72;;;17.95;;
37459;SDS011;23318;50.966;5.284;2023-02-11T06:19:14;44.00;;;19.23;;
37459;SDS011;23318;50.966;5.284;2023-02-11T06:21:39;42.97;;;19.55;;
37459;SDS011;23318;50.966;5.284;2023-02-11T06:24:05;42.17;;;20.13;;
37459;SDS011;23318;50.966;5.284;2023-02-11T06:26:32;48.40;;;19.40;;
37459;SDS011;23318;50.966;5.284;2023-02-11T06:29:01;42.45;;;20.23;;
37459;SDS011;23318;50.966;5.284;2023-02-11T06:31:27;39.35;;;20.65;;
37459;SDS011;23318;50.966;5.284;2023-02-11T06:33:53;48.00;;;20.73;;
37459;SDS011;23318;50.966;5.284;2023-02-11T06:36:22;40.90;;;21.13;;
37459;SDS011;23318;50.966;5.284;2023-02-11T06:38:48;36.30;;;21.10;;
37459;SDS011;23318;50.966;5.284;2023-02-11T06:41:16;49.47;;;21.45;;
37459;SDS011;23318;50.966;5.284;2023-02-11T06:43:44;50.38;;;22.23;;
37459;SDS011;23318;50.966;5.284;2023-02-11T06:46:10;46.22;;;20.33;;
37459;SDS011;23318;50.966;5.284;2023-02-11T06:48:36;55.80;;;22.35;;
37459;SDS011;23318;50.966;5.284;2023-02-11T06:51:02;44.40;;;21.95;;
37459;SDS011;23318;50.966;5.284;2023-02-11T06:53:30;48.85;;;23.65;;
37459;SDS011;23318;50.966;5.284;2023-02-11T06:56:00;43.45;;;22.27;;
37459;SDS011;23318;50.966;5.284;2023-02-11T06:58:27;47.50;;;23.23;;
37459;SDS011;23318;50.966;5.284;2023-02-11T07:00:52;55.45;;;24.33;;
37459;SDS011;23318;50.966;5.284;2023-02-11T07:03:18;48.65;;;23.77;;
37459;SDS011;23318;50.966;5.284;2023-02-11T07:05:44;52.53;;;23.25;;
37459;SDS011;23318;50.966;5.284;2023-02-11T07:08:09;48.95;;;24.20;;
37459;SDS011;23318;50.966;5.284;2023-02-11T07:10:35;52.08;;;25.27;;
37459;SDS011;23318;50.966;5.284;2023-02-11T07:13:01;51.15;;;24.77;;
37459;SDS011;23318;50.966;5.284;2023-02-11T07:15:26;48.97;;;26.67;;
37459;SDS011;23318;50.966;5.284;2023-02-11T07:17:52;54.22;;;26.10;;
37459;SDS011;23318;50.966;5.284;2023-02-11T07:20:18;51.75;;;24.90;;
37459;SDS011;23318;50.966;5.284;2023-02-11T07:22:43;50.42;;;24.42;;
37459;SDS011;23318;50.966;5.284;2023-02-11T07:25:09;53.40;;;26.52;;
37459;SDS011;23318;50.966;5.284;2023-02-11T07:27:35;53.55;;;27.00;;
37459;SDS011;23318;50.966;5.284;2023-02-11T07:30:00;56.67;;;26.75;;
37459;SDS011;23318;50.966;5.284;2023-02-11T07:32:26;52.50;;;27.83;;
37459;SDS011;23318;50.966;5.284;2023-02-11T07:34:52;55.65;;;27.75;;
37459;SDS011;23318;50.966;5.284;2023-02-11T07:37:18;49.83;;;28.15;;
37459;SDS011;23318;50.966;5.284;2023-02-11T07:39:43;56.60;;;27.10;;
37459;SDS011;23318;50.966;5.284;2023-02-11T07:42:09;55.33;;;27.88;;
37459;SDS011;23318;50.966;5.284;2023-02-11T07:44:34;53.55;;;26.67;;
37459;SDS011;23318;50.966;5.284;2023-02-11T07:47:01;49.83;;;25.75;;
37459;SDS011;23318;50.966;5.284;2023-02-11T07:49:27;47.67;;;26.15;;
37459;SDS011;23318;50.966;5.284;2023-02-11T07:51:53;61.63;;;26.65;;
37459;SDS011;23318;50.966;5.284;2023-02-11T07:54:18;53.67;;;24.92;;
37459;SDS011;23318;50.966;5.284;2023-02-11T07:56:44;51.45;;;27.15;;
37459;SDS011;23318;50.966;5.284;2023-02-11T07:59:10;57.72;;;26.20;;
37459;SDS011;23318;50.966;5.284;2023-02-11T08:01:36;50.72;;;26.20;;
37459;SDS011;23318;50.966;5.284;2023-02-11T08:04:01;56.55;;;27.35;;
37459;SDS011;23318;50.966;5.284;2023-02-11T08:06:29;50.40;;;26.40;;
37459;SDS011;23318;50.966;5.284;2023-02-11T08:08:56;57.25;;;27.13;;
37459;SDS011;23318;50.966;5.284;2023-02-11T08:11:24;53.00;;;26.60;;
37459;SDS011;23318;50.966;5.284;2023-02-11T08:13:51;54.97;;;28.35;;
37459;SDS011;23318;50.966;5.284;2023-02-11T08:16:19;54.03;;;27.02;;
37459;SDS011;23318;50.966;5.284;2023-02-11T08:18:48;61.00;;;27.55;;
37459;SDS011;23318;50.966;5.284;2023-02-11T08:21:14;59.15;;;28.10;;
37459;SDS011;23318;50.966;5.284;2023-02-11T08:23:40;61.40;;;28.90;;
37459;SDS011;23318;50.966;5.284;2023-02-11T08:26:10;68.85;;;30.33;;
37459;SDS011;23318;50.966;5.284;2023-02-11T08:28:38;62.03;;;29.73;;
37459;SDS011;23318;50.966;5.284;2023-02-11T08:31:11;55.75;;;29.27;;
37459;SDS011;23318;50.966;5.284;2023-02-11T08:33:38;53.90;;;28.38;;
37459;SDS011;23318;50.966;5.284;2023-02-11T08:36:08;56.05;;;29.25;;
37459;SDS011;23318;50.966;5.284;2023-02-11T08:38:36;58.35;;;30.73;;
37459;SDS011;23318;50.966;5.284;2023-02-11T08:41:02;61.17;;;29.27;;
37459;SDS011;23318;50.966;5.284;2023-02-11T08:43:28;67.68;;;30.60;;
37459;SDS011;23318;50.966;5.284;2023-02-11T08:45:54;64.40;;;32.30;;
37459;SDS011;23318;50.966;5.284;2023-02-11T08:48:19;59.50;;;31.52;;
37459;SDS011;23318;50.966;5.284;2023-02-11T08:50:45;67.10;;;32.00;;
37459;SDS011;23318;50.966;5.284;2023-02-11T08:53:11;64.47;;;30.60;;
37459;SDS011;23318;50.966;5.284;2023-02-11T08:55:36;58.05;;;30.05;;
37459;SDS011;23318;50.966;5.284;2023-02-11T08:58:02;63.60;;;31.05;;
37459;SDS011;23318;50.966;5.284;2023-02-11T09:00:28;65.60;;;31.45;;
37459;SDS011;23318;50.966;5.284;2023-02-11T09:02:53;66.35;;;32.05;;
37459;SDS011;23318;50.966;5.284;2023-02-11T09:05:19;67.50;;;32.88;;
37459;SDS011;23318;50.966;5.284;2023-02-11T09:07:46;64.53;;;32.13;;
37459;SDS011;23318;50.966;5.284;2023-02-11T09:10:12;71.70;;;34.28;;
37459;SDS011;23318;50.966;5.284;2023-02-11T09:12:37;76.72;;;34.80;;
37459;SDS011;23318;50.966;5.284;2023-02-11T09:15:03;72.75;;;33.60;;
37459;SDS011;23318;50.966;5.284;2023-02-11T09:17:29;79.05;;;36.15;;
37459;SDS011;23318;50.966;5.284;2023-02-11T09:19:55;69.72;;;34.28;;
37459;SDS011;23318;50.966;5.284;2023-02-11T09:22:20;64.25;;;33.22;;
37459;SDS011;23318;50.966;5.284;2023-02-11T09:24:46;61.70;;;33.17;;
37459;SDS011;23318;50.966;5.284;2023-02-11T09:27:12;79.90;;;33.08;;
37459;SDS011;23318;50.966;5.284;2023-02-11T09:29:37;69.10;;;33.00;;
37459;SDS011;23318;50.966;5.284;2023-02-11T09:32:03;71.38;;;34.25;;
37459;SDS011;23318;50.966;5.284;2023-02-11T09:34:29;77.78;;;35.60;;
37459;SDS011;23318;50.966;5.284;2023-02-11T09:36:55;71.70;;;33.45;;
37459;SDS011;23318;50.966;5.284;2023-02-11T09:39:20;67.53;;;33.97;;
37459;SDS011;23318;50.966;5.284;2023-02-11T09:44:54;69.45;;;34.28;;
37459;SDS011;23318;50.966;5.284;2023-02-11T09:47:26;65.55;;;33.55;;
37459;SDS011;23318;50.966;5.284;2023-02-11T09:49:57;72.55;;;35.70;;
37459;SDS011;23318;50.966;5.284;2023-02-11T09:52:36;73.75;;;34.83;;
37459;SDS011;23318;50.966;5.284;2023-02-11T09:55:14;69.90;;;34.05;;
37459;SDS011;23318;50.966;5.284;2023-02-11T09:57:50;72.53;;;35.45;;
37459;SDS011;23318;50.966;5.284;2023-02-11T10:00:21;78.75;;;35.35;;
37459;SDS011;23318;50.966;5.284;2023-02-11T10:14:17;83.45;;;37.22;;
37459;SDS011;23318;50.966;5.284;2023-02-11T10:20:17;77.88;;;34.08;;
37459;SDS011;23318;50.966;5.284;2023-02-11T10:22:56;77.82;;;34.92;;
37459;SDS011;23318;50.966;5.284;2023-02-11T10:27:54;82.28;;;34.28;;
37459;SDS011;23318;50.966;5.284;2023-02-11T10:30:56;80.78;;;37.00;;
37459;SDS011;23318;50.966;5.284;2023-02-11T10:36:23;78.63;;;35.70;;
37459;SDS011;23318;50.966;5.284;2023-02-11T10:41:38;91.80;;;39.85;;
37459;SDS011;23318;50.966;5.284;2023-02-11T10:44:18;92.10;;;39.42;;
37459;SDS011;23318;50.966;5.284;2023-02-11T10:46:52;82.05;;;37.50;;
37459;SDS011;23318;50.966;5.284;2023-02-11T10:49:39;82.47;;;36.10;;
37459;SDS011;23318;50.966;5.284;2023-02-11T10:52:11;77.57;;;36.10;;
37459;SDS011;23318;50.966;5.284;2023-02-11T10:58:02;73.53;;;35.20;;
37459;SDS011;23318;50.966;5.284;2023-02-11T11:00:38;81.82;;;36.25;;
37459;SDS011;23318;50.966;5.284;2023-02-11T11:03:16;85.85;;;38.67;;
37459;SDS011;23318;50.966;5.284;2023-02-11T11:05:45;85.65;;;37.80;;
37459;SDS011;23318;50.966;5.284;2023-02-11T11:08:15;87.07;;;38.42;;
37459;SDS011;23318;50.966;5.284;2023-02-11T11:10:43;80.90;;;37.90;;
37459;SDS011;23318;50.966;5.284;2023-02-11T11:16:23;89.65;;;38.90;;
37459;SDS011;23318;50.966;5.284;2023-02-11T11:19:19;91.47;;;39.80;;
37459;SDS011;23318;50.966;5.284;2023-02-11T11:26:59;83.70;;;39.03;;
37459;SDS011;23318;50.966;5.284;2023-02-11T11:32:24;100.43;;;41.60;;
37459;SDS011;23318;50.966;5.284;2023-02-11T11:34:58;87.82;;;39.25;;
37459;SDS011;23318;50.966;5.284;2023-02-11T11:42:46;91.80;;;39.03;;
37459;SDS011;23318;50.966;5.284;2023-02-11T11:45:38;76.75;;;37.40;;
37459;SDS011;23318;50.966;5.284;2023-02-11T11:51:09;77.50;;;37.33;;
37459;SDS011;23318;50.966;5.284;2023-02-11T11:56:36;82.00;;;36.63;;
37459;SDS011;23318;50.966;5.284;2023-02-11T11:59:10;76.20;;;37.88;;
37459;SDS011;23318;50.966;5.284;2023-02-11T12:01:44;90.50;;;39.85;;
37459;SDS011;23318;50.966;5.284;2023-02-11T12:09:48;81.30;;;37.45;;
37459;SDS011;23318;50.966;5.284;2023-02-11T12:23:50;88.32;;;39.25;;
37459;SDS011;23318;50.966;5.284;2023-02-11T12:26:22;79.03;;;38.63;;
37459;SDS011;23318;50.966;5.284;2023-02-11T12:34:17;74.47;;;37.60;;
37459;SDS011;23318;50.966;5.284;2023-02-11T12:37:05;78.15;;;38.17;;
37459;SDS011;23318;50.966;5.284;2023-02-11T12:45:50;77.32;;;38.60;;
37459;SDS011;23318;50.966;5.284;2023-02-11T12:54:18;76.53;;;35.30;;
37459;SDS011;23318;50.966;5.284;2023-02-11T12:57:36;75.57;;;37.05;;
37459;SDS011;23318;50.966;5.284;2023-02-11T12:59:57;77.18;;;38.58;;
37459;SDS011;23318;50.966;5.284;2023-02-11T13:07:50;77.35;;;37.85;;
37459;SDS011;23318;50.966;5.284;2023-02-11T13:10:27;74.93;;;38.55;;
37459;SDS011;23318;50.966;5.284;2023-02-11T13:12:54;74.28;;;36.72;;
37459;SDS011;23318;50.966;5.284;2023-02-11T13:15:40;84.60;;;37.40;;
37459;SDS011;23318;50.966;5.284;2023-02-11T13:26:47;79.57;;;36.42;;
37459;SDS011;23318;50.966;5.284;2023-02-11T13:32:08;73.32;;;34.05;;
37459;SDS011;23318;50.966;5.284;2023-02-11T13:37:50;76.32;;;36.50;;
37459;SDS011;23318;50.966;5.284;2023-02-11T13:40:05;72.45;;;35.25;;
37459;SDS011;23318;50.966;5.284;2023-02-11T13:42:32;69.03;;;35.45;;
37459;SDS011;23318;50.966;5.284;2023-02-11T13:47:55;68.95;;;34.88;;
37459;SDS011;23318;50.966;5.284;2023-02-11T13:50:28;70.30;;;35.50;;
37459;SDS011;23318;50.966;5.284;2023-02-11T13:53:03;69.35;;;36.13;;
37459;SDS011;23318;50.966;5.284;2023-02-11T13:55:31;69.63;;;37.15;;
37459;SDS011;23318;50.966;5.284;2023-02-11T14:06:17;71.43;;;36.60;;
37459;SDS011;23318;50.966;5.284;2023-02-11T14:14:14;85.32;;;43.75;;
37459;SDS011;23318;50.966;5.284;2023-02-11T14:17:33;74.15;;;40.28;;
37459;SDS011;23318;50.966;5.284;2023-02-11T14:19:34;70.57;;;37.88;;
37459;SDS011;23318;50.966;5.284;2023-02-11T14:25:04;77.32;;;41.53;;
37459;SDS011;23318;50.966;5.284;2023-02-11T14:27:47;69.90;;;37.70;;
37459;SDS011;23318;50.966;5.284;2023-02-11T14:33:19;76.72;;;39.75;;
37459;SDS011;23318;50.966;5.284;2023-02-11T14:41:31;64.00;;;35.28;;
37459;SDS011;23318;50.966;5.284;2023-02-11T14:44:03;64.80;;;35.72;;
37459;SDS011;23318;50.966;5.284;2023-02-11T14:46:35;62.63;;;36.10;;
37459;SDS011;23318;50.966;5.284;2023-02-11T14:49:01;67.63;;;36.50;;
37459;SDS011;23318;50.966;5.284;2023-02-11T14:51:37;67.07;;;36.15;;
37459;SDS011;23318;50.966;5.284;2023-02-11T14:56:41;71.05;;;36.38;;
37459;SDS011;23318;50.966;5.284;2023-02-11T14:59:14;70.90;;;37.45;;
37459;SDS011;23318;50.966;5.284;2023-02-11T15:01:44;69.10;;;38.17;;
37459;SDS011;23318;50.966;5.284;2023-02-11T15:06:52;69.63;;;36.83;;
37459;SDS011;23318;50.966;5.284;2023-02-11T15:09:20;67.63;;;36.13;;
37459;SDS011;23318;50.966;5.284;2023-02-11T15:11:57;66.40;;;34.90;;
37459;SDS011;23318;50.966;5.284;2023-02-11T15:14:25;68.88;;;38.80;;
37459;SDS011;23318;50.966;5.284;2023-02-11T15:16:54;73.88;;;35.38;;
37459;SDS011;23318;50.966;5.284;2023-02-11T15:19:23;66.47;;;34.35;;
37459;SDS011;23318;50.966;5.284;2023-02-11T15:21:50;68.22;;;34.97;;
37459;SDS011;23318;50.966;5.284;2023-02-11T15:24:21;68.32;;;37.10;;
37459;SDS011;23318;50.966;5.284;2023-02-11T15:26:56;65.90;;;34.72;;
37459;SDS011;23318;50.966;5.284;2023-02-11T15:29:34;60.85;;;35.35;;
37459;SDS011;23318;50.966;5.284;2023-02-11T15:32:25;66.55;;;35.20;;
37459;SDS011;23318;50.966;5.284;2023-02-11T15:34:52;70.32;;;36.42;;
37459;SDS011;23318;50.966;5.284;2023-02-11T15:39:46;73.85;;;39.67;;
37459;SDS011;23318;50.966;5.284;2023-02-11T15:44:48;65.65;;;37.80;;
37459;SDS011;23318;50.966;5.284;2023-02-11T15:47:16;67.68;;;37.10;;
37459;SDS011;23318;50.966;5.284;2023-02-11T15:49:44;67.43;;;36.20;;
37459;SDS011;23318;50.966;5.284;2023-02-11T15:52:11;68.07;;;37.15;;
37459;SDS011;23318;50.966;5.284;2023-02-11T15:54:38;66.28;;;36.42;;
37459;SDS011;23318;50.966;5.284;2023-02-11T15:57:10;76.25;;;38.05;;
37459;SDS011;23318;50.966;5.284;2023-02-11T15:59:49;71.03;;;37.65;;
37459;SDS011;23318;50.966;5.284;2023-02-11T16:04:50;62.60;;;35.25;;
37459;SDS011;23318;50.966;5.284;2023-02-11T16:07:44;68.05;;;36.40;;
37459;SDS011;23318;50.966;5.284;2023-02-11T16:10:18;83.57;;;44.72;;
37459;SDS011;23318;50.966;5.284;2023-02-11T16:12:52;82.43;;;44.72;;
37459;SDS011;23318;50.966;5.284;2023-02-11T16:18:13;71.15;;;38.85;;
37459;SDS011;23318;50.966;5.284;2023-02-11T16:20:58;85.47;;;44.42;;
37459;SDS011;23318;50.966;5.284;2023-02-11T16:23:31;75.13;;;41.28;;
37459;SDS011;23318;50.966;5.284;2023-02-11T16:28:32;80.73;;;38.50;;
37459;SDS011;23318;50.966;5.284;2023-02-11T16:30:59;68.63;;;37.63;;
37459;SDS011;23318;50.966;5.284;2023-02-11T16:33:25;73.63;;;38.28;;
37459;SDS011;23318;50.966;5.284;2023-02-11T16:35:52;69.72;;;36.75;;
37459;SDS011;23318;50.966;5.284;2023-02-11T16:38:18;71.90;;;39.55;;
37459;SDS011;23318;50.966;5.284;2023-02-11T16:40:44;78.13;;;40.40;;
37459;SDS011;23318;50.966;5.284;2023-02-11T16:43:13;69.63;;;38.20;;
37459;SDS011;23318;50.966;5.284;2023-02-11T16:45:39;69.57;;;39.35;;
37459;SDS011;23318;50.966;5.284;2023-02-11T16:48:06;74.38;;;39.92;;
37459;SDS011;23318;50.966;5.284;2023-02-11T16:50:33;67.78;;;39.40;;
37459;SDS011;23318;50.966;5.284;2023-02-11T16:52:59;75.30;;;41.05;;
37459;SDS011;23318;50.966;5.284;2023-02-11T16:55:30;77.57;;;40.10;;
37459;SDS011;23318;50.966;5.284;2023-02-11T16:57:57;77.63;;;40.88;;
37459;SDS011;23318;50.966;5.284;2023-02-11T17:00:22;84.03;;;45.55;;
37459;SDS011;23318;50.966;5.284;2023-02-11T17:02:48;89.93;;;44.63;;
37459;SDS011;23318;50.966;5.284;2023-02-11T17:05:15;86.15;;;44.45;;
37459;SDS011;23318;50.966;5.284;2023-02-11T17:07:43;84.45;;;44.67;;
37459;SDS011;23318;50.966;5.284;2023-02-11T17:10:13;82.80;;;43.90;;
37459;SDS011;23318;50.966;5.284;2023-02-11T17:12:40;87.15;;;45.97;;
37459;SDS011;23318;50.966;5.284;2023-02-11T17:15:06;86.88;;;46.05;;
37459;SDS011;23318;50.966;5.284;2023-02-11T17:17:32;90.22;;;46.00;;
37459;SDS011;23318;50.966;5.284;2023-02-11T17:19:57;90.13;;;46.33;;
37459;SDS011;23318;50.966;5.284;2023-02-11T17:22:23;81.18;;;41.80;;
37459;SDS011;23318;50.966;5.284;2023-02-11T17:24:49;80.50;;;41.13;;
37459;SDS011;23318;50.966;5.284;2023-02-11T17:27:14;77.15;;;41.35;;
37459;SDS011;23318;50.966;5.284;2023-02-11T17:29:41;75.88;;;40.50;;
37459;SDS011;23318;50.966;5.284;2023-02-11T17:32:06;76.38;;;40.58;;
37459;SDS011;23318;50.966;5.284;2023-02-11T17:34:32;77.45;;;41.40;;
37459;SDS011;23318;50.966;5.284;2023-02-11T17:36:58;73.50;;;40.90;;
37459;SDS011;23318;50.966;5.284;2023-02-11T17:39:24;75.47;;;40.50;;
37459;SDS011;23318;50.966;5.284;2023-02-11T17:41:50;76.25;;;38.42;;
37459;SDS011;23318;50.966;5.284;2023-02-11T17:44:16;74.82;;;39.63;;
37459;SDS011;23318;50.966;5.284;2023-02-11T17:46:42;70.38;;;38.50;;
37459;SDS011;23318;50.966;5.284;2023-02-11T17:49:09;73.53;;;40.42;;